• Join FlightAware (Why Join?)
  • Login
  • US Flag 
02:24PM EDT


 

Airport Tracker/Info


-or-


 

Live Flight TrackerFlight Track Log ✈ N667CD ✈ 10-Sep-2013 ✈ KPDK - KVQQ

Flight Track Log - Related Links

Times and Time Zones

All times are in EDT time to prevent confusion due to time zone crossing. See the N667CD flight status page for this flight to view local times or setup timezone preferences in your user account.

Time Position Orientation Groundspeed Altitude Reporting Facility
EDT Latitude Longitude Course Direction KTS MPH feet Rate Location/Type
09:04AM 33.8167 -84.4333 220° Southwest 164 189 5,000  Level Atlanta TRACON
09:05AM 33.6348 -84.1351 175° South  Level Estimated
09:06AM 33.5886 -84.1404 185° South  Level FlightAware Approximate
09:06AM 33.7444 -84.3796 174° South  Level Estimated
09:07AM 33.5425 -84.1457 185° South  Level FlightAware Approximate
09:08AM 33.6333 -84.4500 175° South 159 183 5,000  Level Atlanta TRACON
09:09AM 33.6000 -84.4500 180° South 158 182 5,000  Level Atlanta TRACON
09:11AM 33.5292 -84.3937 146° Southeast  Level Estimated
09:12AM 33.4667 -84.4167 146° Southeast 158 182 5,000  Level Atlanta TRACON
09:13AM 33.4684 -84.1752 175° South  Level Estimated
09:14AM 33.4000 -84.3500 140° Southeast 156 180 5,000  Level Atlanta TRACON
09:15AM 33.3667 -84.3333 157° South 158 182 5,000  Level Atlanta TRACON
09:16AM 33.3333 -84.2833 129° Southeast 157 181 5,000 180 Level Atlanta TRACON
09:17AM 33.3000 -84.2500 140° Southeast 146 168 5,400 360 Climbing Atlanta TRACON
09:18AM 33.2667 -84.2333 157° South 139 160 5,800 360 Climbing Atlanta TRACON
09:19AM 33.2500 -84.2000 121° Southeast 139 160 6,200 420 Climbing Atlanta TRACON
09:19AM 33.2167 -84.1667 140° Southeast 135 155 6,600 420 Climbing Atlanta TRACON
09:20AM 33.1833 -84.1500 157° South 134 154 7,000 360 Climbing Atlanta TRACON
09:21AM 33.1667 -84.1167 121° Southeast 140 161 7,400 420 Climbing Atlanta TRACON
09:23AM 33.1167 -84.0833 151° Southeast 138 159 7,900 360 Climbing Atlanta TRACON
09:23AM 33.1000 -84.0667 140° Southeast 141 162 8,200 360 Climbing Atlanta TRACON
09:25AM 33.0667 -84.0333 140° Southeast 144 166 8,700 360 Climbing Atlanta TRACON
09:25AM 33.0333 -84.0167 157° South 144 166 9,000 120 Climbing Atlanta TRACON
09:26AM 33.0000 -83.9833 140° Southeast 159 183 9,000  Level Atlanta TRACON
09:27AM 32.9667 -83.9667 157° South 163 188 9,000  Level Atlanta TRACON
09:28AM 32.9167 -83.9333 151° Southeast 163 188 9,000  Level Atlanta TRACON
09:29AM 32.8833 -83.9000 140° Southeast 164 189 9,000  Level Atlanta TRACON
09:30AM 32.8500 -83.8667 140° Southeast 165 190 9,000  Level Atlanta TRACON
09:31AM 32.8000 -83.8333 151° Southeast 164 189 9,000  Level Atlanta TRACON
09:32AM 32.7667 -83.8167 157° South 164 189 9,000  Level Atlanta TRACON
09:33AM 32.7333 -83.7833 140° Southeast 164 189 9,000  Level Atlanta TRACON
09:34AM 32.7000 -83.7667 157° South 164 189 9,000  Level Atlanta TRACON
09:35AM 32.6667 -83.7333 140° Southeast 172 198 9,000  Level Atlanta TRACON
09:36AM 32.6333 -83.7000 140° Southeast 172 198 9,000  Level Atlanta TRACON
09:37AM 32.5833 -83.6667 151° Southeast 163 188 9,000  Level Atlanta TRACON
09:38AM 32.5500 -83.6500 157° South 161 185 9,000  Level Atlanta TRACON
09:39AM 32.5028 -83.6069 142° Southeast 169 194 9,000  Level Jacksonville Center
09:40AM 32.4633 -83.5772 148° Southeast 169 194 9,000  Level Jacksonville Center
09:41AM 32.4258 -83.5472 146° Southeast 169 194 9,000 -60 Level Jacksonville Center
09:42AM 32.3906 -83.5175 145° Southeast 164 189 8,900 -60 Descending Jacksonville Center
09:43AM 32.3531 -83.4903 148° Southeast 164 189 8,900  Level Jacksonville Center
09:44AM 32.3156 -83.4581 144° Southeast 164 189 8,900  Level Jacksonville Center
09:45AM 32.2781 -83.4258 144° Southeast 164 189 8,900  Level Jacksonville Center
09:46AM 32.2428 -83.3961 145° Southeast 164 189 8,900  Level Jacksonville Center
09:47AM 32.2053 -83.3617 142° Southeast 164 189 8,900  Level Jacksonville Center
09:48AM 32.1700 -83.3344 147° Southeast 164 189 8,900  Level Jacksonville Center
09:49AM 32.1344 -83.2997 140° Southeast 164 189 8,900  Level Jacksonville Center
09:50AM 32.0972 -83.2678 144° Southeast 164 189 8,900  Level Jacksonville Center
09:51AM 32.0597 -83.2358 144° Southeast 164 189 8,900  Level Jacksonville Center
09:52AM 32.0242 -83.2061 145° Southeast 164 189 8,900  Level Jacksonville Center
09:53AM 31.9867 -83.1719 142° Southeast 164 189 8,900  Level Jacksonville Center
09:54AM 31.9492 -83.1397 144° Southeast 164 189 8,900  Level Jacksonville Center
09:55AM 31.9136 -83.1081 143° Southeast 164 189 8,900  Level Jacksonville Center
09:56AM 31.8742 -83.0761 145° Southeast 164 189 8,900  Level Jacksonville Center
09:57AM 31.8386 -83.0467 145° Southeast 164 189 8,900  Level Jacksonville Center
09:58AM 31.8031 -83.0125 141° Southeast 164 189 8,900  Level Jacksonville Center
09:59AM 31.7656 -82.9806 144° Southeast 164 189 8,900  Level Jacksonville Center
10:00AM 31.7303 -82.9511 145° Southeast 164 189 8,900  Level Jacksonville Center
10:01AM 31.6906 -82.9169 144° Southeast 164 189 8,900  Level Jacksonville Center
10:02AM 31.6550 -82.8878 145° Southeast 164 189 8,900  Level Jacksonville Center
10:03AM 31.6175 -82.8561 144° Southeast 164 189 8,900  Level Jacksonville Center
10:04AM 31.5819 -82.8267 145° Southeast 164 189 8,900  Level Jacksonville Center
10:05AM 31.5464 -82.7925 141° Southeast 164 189 8,900  Level Jacksonville Center
10:06AM 31.5108 -82.7633 145° Southeast 164 189 8,900  Level Jacksonville Center
10:07AM 31.4753 -82.7317 143° Southeast 164 189 8,900  Level Jacksonville Center
10:08AM 31.4378 -82.7028 147° Southeast 164 189 8,900  Level Jacksonville Center
10:09AM 31.4022 -82.6711 143° Southeast 164 189 8,900  Level Jacksonville Center
10:10AM 31.3644 -82.6394 144° Southeast 164 189 8,900  Level Jacksonville Center
10:11AM 31.3311 -82.6081 141° Southeast 164 189 8,900  Level Jacksonville Center
10:12AM 31.2933 -82.5839 151° Southeast 164 189 8,900  Level Jacksonville Center
10:13AM 31.2578 -82.5547 145° Southeast 164 189 9,000  Climbing Jacksonville Center
10:14AM 31.2161 -82.5283 152° Southeast 164 189 8,900 -60 Descending Jacksonville Center
10:15AM 31.1783 -82.5042 151° Southeast 164 189 8,900  Level Jacksonville Center
10:16AM 31.1386 -82.4775 150° Southeast 164 189 8,900 -240 Level Jacksonville Center
10:17AM 31.0989 -82.4511 150° Southeast 164 189 8,500 -420 Descending Jacksonville Center
10:18AM 31.0569 -82.4219 149° Southeast 164 189 8,100 -420 Descending Jacksonville Center
10:19AM 31.0361 -82.4053 146° Southeast 177 204 7,900 -420 Descending Jacksonville Center
10:19AM 31.0131 -82.3933 156° South 169 194 7,700 -480 Descending Jacksonville Center
10:20AM 30.9858 -82.3739 149° Southeast 176 203 7,400 -420 Descending Jacksonville Center
10:20AM 30.9711 -82.3667 157° South 174 200 7,300 -300 Descending Jacksonville Center
10:21AM 30.9461 -82.3475 147° Southeast 176 203 7,100 -420 Descending Jacksonville Center
10:21AM 30.9292 -82.3403 160° South 174 200 6,900 -540 Descending Jacksonville Center
10:22AM 30.9019 -82.3189 146° Southeast 177 204 6,600 -420 Descending Jacksonville Center
10:22AM 30.8853 -82.3092 153° Southeast 179 206 6,500 -360 Descending Jacksonville Center
10:23AM 30.8644 -82.2925 146° Southeast 174 200 6,300 -420 Descending Jacksonville Center
10:23AM 30.8433 -82.2828 158° South 179 206 6,100 -300 Descending Jacksonville Center
10:24AM 30.8203 -82.2661 148° Southeast 172 198 6,000 -120 Descending Jacksonville Center
10:24AM 30.8014 -82.2564 156° South 179 206 6,000  Level Jacksonville Center
10:25AM 30.7742 -82.2372 149° Southeast 162 186 6,000  Level Jacksonville Center
10:25AM 30.7639 -82.2300 149° Southeast 172 198 6,000  Level Jacksonville Center
10:26AM 30.7367 -82.2133 152° Southeast 159 183 6,000  Level Jacksonville Center
10:26AM 30.7239 -82.2039 148° Southeast 167 192 6,000  Level Jacksonville Center
10:27AM 30.6967 -82.1872 152° Southeast 161 185 6,000  Level Jacksonville Center
10:27AM 30.6864 -82.1775 141° Southeast 162 186 6,000 -420 Level Jacksonville Center
10:28AM 30.6569 -82.1608 154° Southeast 165 190 5,600 -540 Descending Jacksonville Center
10:28AM 30.6444 -82.1536 154° Southeast 162 186 5,500 -480 Descending Jacksonville Center
10:29AM 30.6172 -82.1347 149° Southeast 177 204 5,200 -600 Descending Jacksonville Center
10:30AM 30.5753 -82.1083 152° Southeast 177 204 4,600 -600 Descending Jacksonville Center
10:31AM 30.5269 -82.0775 151° Southeast 178 205 4,100 -480 Descending Jacksonville Center
10:32AM 30.4808 -82.0489 152° Southeast 173 199 3,600 -480 Descending Jacksonville Center
10:33AM 30.4411 -82.0228 150° Southeast 163 188 3,100 -600 Descending Jacksonville Center
10:34AM 30.3928 -82.0089 166° South 169 194 2,500 -540 Descending Jacksonville Center
10:35AM 30.3489 -81.9972 167° South 165 190 2,100 -300 Descending Jacksonville Center
10:36AM 30.3072 -81.9878 169° South 160 184 2,000 -180 Descending Jacksonville Center
10:37AM 30.2675 -81.9739 163° South 146 168 1,800 -240 Descending Jacksonville Center
10:38AM 30.2297 -81.9572 159° South 131 151 1,500 -600 Descending Jacksonville Center
10:39AM 30.2169 -81.9286 117° Southeast 91 105 600 -900 Descending Jacksonville Center
10:41AM 30.2188 -81.8772 147° Southeast  Level Estimated
10:48AM 30.2188 -81.8772 147° Southeast  Level Estimated